createdAt,value
2019-03-28T00:01:04.545Z,98947.38
2019-03-28T00:03:31.484Z,98940.34
2019-03-28T00:05:58.420Z,98940.34
2019-03-28T00:08:25.333Z,98934.59
2019-03-28T00:10:52.245Z,98938.05
2019-03-28T00:13:19.187Z,98933.63
2019-03-28T00:15:46.096Z,98930.50
2019-03-28T00:18:13.009Z,98939.97
2019-03-28T00:20:39.940Z,98935.03
2019-03-28T00:23:08.511Z,98931.61
2019-03-28T00:25:35.452Z,98935.64
2019-03-28T00:28:02.364Z,98930.61
2019-03-28T00:30:29.274Z,98932.22
2019-03-28T00:32:56.235Z,98937.25
2019-03-28T00:35:23.176Z,98941.98
2019-03-28T00:37:50.109Z,98937.05
2019-03-28T00:40:17.025Z,98934.23
2019-03-28T00:42:43.955Z,98939.47
2019-03-28T00:45:10.871Z,98938.97
2019-03-28T00:47:37.808Z,98933.23
2019-03-28T00:50:04.756Z,98934.23
2019-03-28T00:52:31.841Z,98931.92
2019-03-28T00:54:58.776Z,98930.11
2019-03-28T00:57:25.698Z,98932.22
2019-03-28T00:59:52.849Z,98930.72
2019-03-28T01:02:19.820Z,98935.95
2019-03-28T01:04:46.750Z,98930.24
2019-03-28T01:07:13.668Z,98932.97
2019-03-28T01:09:40.593Z,98929.53
2019-03-28T01:12:07.608Z,98952.10
2019-03-28T01:14:34.515Z,98929.03
2019-03-28T01:17:01.440Z,98935.38
2019-03-28T01:19:28.400Z,98928.33
2019-03-28T01:21:55.390Z,98927.52
2019-03-28T01:24:22.347Z,98924.70
2019-03-28T01:26:57.109Z,98924.20
2019-03-28T01:29:17.945Z,98932.86
2019-03-28T01:31:44.909Z,98927.93
2019-03-28T01:34:11.870Z,98930.85
2019-03-28T01:36:38.840Z,98930.55
2019-03-28T01:39:05.769Z,98930.55
2019-03-28T01:41:32.687Z,98936.09
2019-03-28T01:43:59.604Z,98938.20
2019-03-28T01:46:26.516Z,98935.41
2019-03-28T01:48:53.438Z,98938.20
2019-03-28T01:51:20.480Z,98934.78
2019-03-28T01:53:47.410Z,98934.91
2019-03-28T01:56:14.338Z,98930.48
2019-03-28T01:58:41.232Z,98931.78
2019-03-28T02:01:08.161Z,98933.73
2019-03-28T02:03:35.059Z,98933.40
2019-03-28T02:06:01.977Z,98931.78
2019-03-28T02:08:28.880Z,98927.36
2019-03-28T02:10:55.806Z,98925.55
2019-03-28T02:13:22.712Z,98926.85
2019-03-28T02:15:49.616Z,98927.19
2019-03-28T02:18:16.570Z,98924.06
2019-03-28T02:20:43.472Z,98924.67
2019-03-28T02:23:10.597Z,98920.73
2019-03-28T02:25:38.064Z,98923.36
2019-03-28T02:28:04.972Z,98926.28
2019-03-28T02:30:31.909Z,98923.86
2019-03-28T02:32:59.890Z,98929.70
2019-03-28T02:35:26.934Z,98925.27
2019-03-28T02:37:53.866Z,98931.82
2019-03-28T02:40:20.878Z,98930.00
2019-03-28T02:42:47.821Z,98924.47
2019-03-28T02:45:14.694Z,98927.08
2019-03-28T02:47:41.611Z,98920.53
2019-03-28T02:50:08.557Z,98925.57
2019-03-28T02:52:35.540Z,98924.27
2019-03-28T02:55:02.454Z,98920.84
2019-03-28T02:57:40.899Z,98923.25
2019-03-28T02:59:58.012Z,98925.57
2019-03-28T03:02:24.925Z,98925.06
2019-03-28T03:04:51.831Z,98926.98
2019-03-28T03:07:18.811Z,98929.30
2019-03-28T03:09:45.666Z,98926.17
2019-03-28T03:12:12.583Z,98924.56
2019-03-28T03:14:39.542Z,98925.17
2019-03-28T03:17:06.465Z,98921.44
2019-03-28T03:19:33.387Z,98912.06
2019-03-28T03:22:00.315Z,98914.99
2019-03-28T03:24:27.252Z,98918.92
2019-03-28T03:26:54.241Z,98925.27
2019-03-28T03:29:21.198Z,98918.92
2019-03-28T03:31:48.128Z,98919.42
2019-03-28T03:34:15.069Z,98924.16
2019-03-28T03:36:42.024Z,98929.20
2019-03-28T03:39:09.015Z,98924.46
2019-03-28T03:41:35.966Z,98921.03
2019-03-28T03:44:02.878Z,98921.34
2019-03-28T03:46:29.877Z,98924.77
2019-03-28T03:48:56.812Z,98924.77
2019-03-28T03:51:23.737Z,98927.89
2019-03-28T03:53:50.668Z,98928.39
2019-03-28T03:56:17.608Z,98932.63
2019-03-28T03:58:45.673Z,98926.91
2019-03-28T04:01:12.850Z,98926.91
2019-03-28T04:03:39.764Z,98930.84
2019-03-28T04:06:06.692Z,98932.95
2019-03-28T04:08:33.633Z,98929.02
2019-03-28T04:11:00.580Z,98931.14
2019-03-28T04:13:27.492Z,98930.34
2019-03-28T04:15:54.576Z,98934.06
2019-03-28T04:18:22.233Z,98935.07
2019-03-28T04:20:49.366Z,98936.38
2019-03-28T04:23:16.285Z,98934.77
2019-03-28T04:25:43.214Z,98942.63
2019-03-28T04:28:10.141Z,98951.30
2019-03-28T04:30:37.113Z,98953.72
2019-03-28T04:33:04.049Z,98955.02
2019-03-28T04:35:30.963Z,98952.91
2019-03-28T04:37:58.621Z,98950.79
2019-03-28T04:40:25.679Z,98955.23
2019-03-28T04:42:52.627Z,98955.23
2019-03-28T04:45:19.576Z,98956.84
2019-03-28T04:47:46.495Z,98961.58
2019-03-28T04:50:13.438Z,98953.11
2019-03-28T04:52:40.356Z,98953.41
2019-03-28T04:55:07.290Z,98954.52
2019-03-28T04:57:34.242Z,98953.72
2019-03-28T05:00:01.177Z,98989.59
2019-03-28T05:02:28.107Z,98956.53
2019-03-28T05:04:55.032Z,98955.23
2019-03-28T05:07:22.005Z,98951.59
2019-03-28T05:09:49.166Z,98952.61
2019-03-28T05:12:16.044Z,98949.98
2019-03-28T05:14:43.000Z,98947.67
2019-03-28T05:17:10.000Z,98957.34
2019-03-28T05:19:36.932Z,98956.03
2019-03-28T05:22:03.838Z,98948.84
2019-03-28T05:24:30.772Z,98944.75
2019-03-28T05:26:57.701Z,98945.72
2019-03-28T05:29:24.614Z,98951.80
2019-03-28T05:31:51.562Z,98949.86
2019-03-28T05:34:18.502Z,98955.09
2019-03-28T05:36:45.408Z,98954.09
2019-03-28T05:39:12.316Z,98956.70
2019-03-28T05:41:39.240Z,98958.52
2019-03-28T05:44:06.168Z,98954.09
2019-03-28T05:46:33.129Z,98954.59
2019-03-28T05:49:00.008Z,98962.75
2019-03-28T05:51:26.939Z,98960.64
2019-03-28T05:53:53.876Z,98966.88
2019-03-28T05:56:20.834Z,98968.70
2019-03-28T05:58:47.730Z,98971.12
2019-03-28T06:01:14.672Z,98849.38
2019-03-28T06:03:42.411Z,98969.50
2019-03-28T06:06:09.591Z,98970.52
2019-03-28T06:08:36.525Z,98972.93
2019-03-28T06:11:03.465Z,98975.55
2019-03-28T06:13:30.418Z,98979.48
2019-03-28T06:15:57.375Z,98988.14
2019-03-28T06:18:24.286Z,98992.08
2019-03-28T06:20:51.228Z,99000.27
2019-03-28T06:23:18.149Z,98999.63
2019-03-28T06:25:45.081Z,98993.39
2019-03-28T06:28:12.260Z,99011.42
2019-03-28T06:30:39.192Z,98998.33
2019-03-28T06:33:06.148Z,98992.58
2019-03-28T06:35:33.299Z,98996.20
2019-03-28T06:38:00.216Z,98993.59
2019-03-28T06:40:27.901Z,98994.09
2019-03-28T06:42:54.869Z,98988.34
2019-03-28T06:45:21.840Z,98987.04
2019-03-28T06:47:48.783Z,98991.47
2019-03-28T06:50:15.683Z,98988.85
2019-03-28T06:52:42.637Z,98986.53
2019-03-28T06:55:09.592Z,98992.28
2019-03-28T06:57:36.544Z,98987.55
2019-03-28T07:00:03.457Z,98981.50
2019-03-28T07:02:30.399Z,98984.62
2019-03-28T07:04:57.316Z,98982.80
2019-03-28T07:07:24.249Z,98976.25
2019-03-28T07:09:51.181Z,98975.25
2019-03-28T07:12:18.468Z,98971.83
2019-03-28T07:14:45.679Z,98974.44
2019-03-28T07:17:12.624Z,98971.52
2019-03-28T07:19:39.543Z,98976.76
2019-03-28T07:22:06.497Z,98980.69
2019-03-28T07:24:33.466Z,98982.00
2019-03-28T07:27:00.348Z,98982.00
2019-03-28T07:29:27.314Z,98986.73
2019-03-28T07:31:54.246Z,98984.62
2019-03-28T07:34:21.163Z,98991.17
2019-03-28T07:36:48.148Z,98993.78
2019-03-28T07:39:15.097Z,99022.30
2019-03-28T07:41:42.038Z,98998.42
2019-03-28T07:44:08.960Z,98996.11
2019-03-28T07:46:35.937Z,98994.80
2019-03-28T07:49:02.868Z,98995.30
2019-03-28T07:51:29.775Z,98991.88
2019-03-28T07:53:56.717Z,98988.25
2019-03-28T07:56:23.627Z,98992.17
2019-03-28T07:58:50.542Z,98990.56
2019-03-28T08:01:18.251Z,98987.13
2019-03-28T08:03:45.504Z,98994.80
2019-03-28T08:06:12.916Z,98993.19
2019-03-28T08:08:40.795Z,98995.30
2019-03-28T08:11:08.635Z,98986.94
2019-03-28T08:13:35.709Z,98986.63
2019-03-28T08:16:02.853Z,98979.58
2019-03-28T08:18:29.781Z,98982.41
2019-03-28T08:20:56.760Z,98990.06
2019-03-28T08:23:23.675Z,98988.75
2019-03-28T08:25:50.649Z,98991.88
2019-03-28T08:28:17.612Z,98994.70
2019-03-28T08:30:45.468Z,98995.00
2019-03-28T08:33:12.734Z,98998.42
2019-03-28T08:35:39.784Z,98997.31
2019-03-28T08:38:09.738Z,98999.62
2019-03-28T08:40:35.321Z,98999.73
2019-03-28T08:43:02.246Z,98996.30
2019-03-28T08:45:29.244Z,98999.93
2019-03-28T08:47:56.229Z,99002.75
2019-03-28T08:50:23.149Z,99008.30
2019-03-28T08:52:50.051Z,98995.00
2019-03-28T08:55:16.973Z,99002.05
2019-03-28T08:57:43.893Z,99003.86
2019-03-28T09:00:11.908Z,98992.27
2019-03-28T09:02:38.846Z,99005.17
2019-03-28T09:05:05.909Z,99000.94
2019-03-28T09:07:32.929Z,99006.48
2019-03-28T09:09:59.827Z,99004.67
2019-03-28T09:12:26.745Z,99006.78
2019-03-28T09:17:37.999Z,98998.12
2019-03-28T09:20:04.949Z,98999.62
2019-03-28T09:22:31.844Z,98992.17
2019-03-28T09:24:58.759Z,98998.92
2019-03-28T09:27:25.687Z,98996.11
2019-03-28T09:29:52.594Z,98998.42
2019-03-28T09:32:19.502Z,98993.28
2019-03-28T09:34:46.409Z,98994.80
2019-03-28T09:37:13.316Z,98988.45
2019-03-28T09:39:40.238Z,98981.39
2019-03-28T09:42:07.132Z,98979.28
2019-03-28T09:44:34.044Z,98978.27
2019-03-28T09:47:00.948Z,98983.52
2019-03-28T09:49:27.860Z,98982.91
2019-03-28T09:51:54.767Z,98981.09
2019-03-28T09:54:21.700Z,98982.91
2019-03-28T09:56:48.630Z,98974.74
2019-03-28T09:59:15.536Z,98976.66
2019-03-28T10:01:42.444Z,98982.41
2019-03-28T10:04:09.376Z,98983.20
2019-03-28T10:06:36.293Z,98977.97
2019-03-28T10:09:04.169Z,98977.47
2019-03-28T10:11:31.080Z,98977.16
2019-03-28T10:13:57.991Z,98976.16
2019-03-28T10:16:24.976Z,98977.97
2019-03-28T10:18:51.925Z,98976.66
2019-03-28T10:21:18.873Z,98972.73
2019-03-28T10:23:45.820Z,98971.41
2019-03-28T10:26:12.828Z,98964.36
2019-03-28T10:28:39.773Z,98965.17
2019-03-28T10:31:16.470Z,98969.10
2019-03-28T10:33:35.363Z,98964.67
2019-03-28T10:36:02.328Z,98963.16
2019-03-28T10:38:29.328Z,98958.92
2019-03-28T10:40:56.312Z,98947.64
2019-03-28T10:43:23.299Z,98953.18
2019-03-28T10:45:50.283Z,98951.37
2019-03-28T10:48:17.274Z,98951.88
2019-03-28T10:50:46.039Z,98953.48
2019-03-28T10:53:12.883Z,98956.61
2019-03-28T10:55:39.867Z,98954.49
2019-03-28T10:58:17.832Z,98952.58
2019-03-28T11:00:35.960Z,98946.23
2019-03-28T11:03:03.076Z,98946.73
2019-03-28T11:05:30.223Z,98957.31
2019-03-28T11:07:57.232Z,98955.50
2019-03-28T11:10:24.284Z,98945.32
2019-03-28T11:12:51.269Z,98944.81
2019-03-28T11:15:18.338Z,98946.86
2019-03-28T11:17:45.388Z,98943.33
2019-03-28T11:20:12.434Z,98947.17
2019-03-28T11:22:39.484Z,98950.79
2019-03-28T11:25:06.564Z,98947.67
2019-03-28T11:27:33.782Z,98951.39
2019-03-28T11:30:00.830Z,98946.96
2019-03-28T11:32:27.855Z,98942.02
2019-03-28T11:34:54.901Z,98946.76
2019-03-28T11:37:26.289Z,98941.22
2019-03-28T11:39:50.567Z,98942.83
2019-03-28T11:42:17.548Z,98942.02
2019-03-28T11:44:44.657Z,98940.20
2019-03-28T11:47:11.701Z,98934.16
2019-03-28T11:49:38.749Z,98932.55
2019-03-28T11:52:05.800Z,98936.78
2019-03-28T11:54:32.849Z,98937.80
2019-03-28T11:56:59.894Z,98935.17
2019-03-28T11:59:26.941Z,98935.98
2019-03-28T12:01:59.876Z,98935.98
2019-03-28T12:04:22.778Z,98930.13
2019-03-28T12:06:50.643Z,98935.24
2019-03-28T12:09:17.897Z,98924.97
2019-03-28T12:11:44.943Z,98929.70
2019-03-28T12:14:11.990Z,98925.47
2019-03-28T12:16:39.143Z,98915.50
2019-03-28T12:19:06.190Z,98917.81
2019-03-28T12:21:33.238Z,98917.31
2019-03-28T12:24:00.288Z,98919.42
2019-03-28T12:26:27.304Z,98914.19
2019-03-28T12:28:54.386Z,98908.64
2019-03-28T12:31:21.433Z,98911.77
2019-03-28T12:33:48.477Z,98918.63
2019-03-28T12:36:15.627Z,98914.19
2019-03-28T12:38:42.644Z,98917.01
2019-03-28T12:41:09.723Z,98912.57
2019-03-28T12:43:36.774Z,98915.19
2019-03-28T12:46:03.818Z,98909.75
2019-03-28T12:48:30.867Z,98918.95
2019-03-28T12:50:58.977Z,98906.86
2019-03-28T12:53:26.158Z,98906.35
2019-03-28T12:55:53.149Z,98905.55
2019-03-28T12:58:20.140Z,98902.42
2019-03-28T13:00:47.109Z,98908.97
2019-03-28T13:03:14.178Z,98907.36
2019-03-28T13:05:41.226Z,98902.92
2019-03-28T13:08:08.274Z,98900.51
2019-03-28T13:10:35.322Z,98898.80
2019-03-28T13:13:02.390Z,98900.30
2019-03-28T13:15:29.418Z,98896.15
2019-03-28T13:17:56.395Z,98896.34
2019-03-28T13:20:23.513Z,98894.44
2019-03-28T13:22:52.007Z,98894.33
2019-03-28T13:25:19.319Z,98896.28
2019-03-28T13:27:46.504Z,98899.09
2019-03-28T13:30:13.649Z,98897.58
2019-03-28T13:32:42.236Z,98895.37
2019-03-28T13:35:09.457Z,98890.33
2019-03-28T13:37:36.468Z,98892.95
2019-03-28T13:40:03.561Z,98886.09
2019-03-28T13:42:30.630Z,98886.09
2019-03-28T13:44:57.592Z,98881.53
2019-03-28T13:47:24.811Z,98886.30
2019-03-28T13:49:53.617Z,98884.16
2019-03-28T13:52:20.666Z,98883.85
2019-03-28T13:54:47.814Z,98880.73
2019-03-28T13:57:14.832Z,98881.44
2019-03-28T13:59:41.911Z,98878.31
2019-03-28T14:02:08.960Z,98874.08
2019-03-28T14:04:36.007Z,98871.77
2019-03-28T14:07:03.055Z,98871.26
2019-03-28T14:09:30.102Z,98875.69
2019-03-28T14:11:57.076Z,98738.17
2019-03-28T14:14:24.201Z,98869.14
2019-03-28T14:16:53.157Z,98726.67
2019-03-28T14:19:19.903Z,98889.39
2019-03-28T14:21:46.896Z,98872.19
2019-03-28T14:24:13.892Z,98874.81
2019-03-28T14:26:40.882Z,98873.60
2019-03-28T14:29:07.961Z,98870.77
2019-03-28T14:31:35.173Z,98871.48
2019-03-28T14:34:02.704Z,98868.05
2019-03-28T14:36:29.825Z,98869.88
2019-03-28T14:38:56.869Z,98870.98
2019-03-28T14:41:23.885Z,98867.86
2019-03-28T14:43:50.922Z,98870.48
2019-03-28T14:46:17.927Z,98870.67
2019-03-28T14:48:45.133Z,98871.69
2019-03-28T14:51:12.176Z,98875.31
2019-03-28T14:53:39.337Z,98870.58
2019-03-28T14:56:06.367Z,98872.36
2019-03-28T14:58:33.483Z,98870.58
2019-03-28T15:01:00.667Z,98872.19
2019-03-28T15:03:27.868Z,98870.08
2019-03-28T15:05:55.085Z,98871.39
2019-03-28T15:08:22.122Z,98878.23
2019-03-28T15:10:49.175Z,98873.67
2019-03-28T15:13:16.427Z,98872.87
2019-03-28T15:15:43.442Z,98869.44
2019-03-28T15:18:10.515Z,98871.05
2019-03-28T15:20:37.563Z,98869.27
2019-03-28T15:23:04.609Z,98871.26
2019-03-28T15:25:31.658Z,98860.98
2019-03-28T15:27:58.634Z,98862.30
2019-03-28T15:30:25.717Z,98857.56
2019-03-28T15:32:52.772Z,98766.66
2019-03-28T15:35:19.768Z,98865.63
2019-03-28T15:37:47.404Z,98863.81
2019-03-28T15:40:14.765Z,98861.39
2019-03-28T15:42:41.805Z,98860.98
2019-03-28T15:45:08.827Z,98865.64
2019-03-28T15:47:35.981Z,98871.89
2019-03-28T15:50:03.029Z,98875.48
2019-03-28T15:52:30.106Z,98872.27
2019-03-28T15:54:57.151Z,98866.83
2019-03-28T15:57:24.143Z,98864.91
2019-03-28T15:59:51.133Z,98867.83
2019-03-28T16:02:18.298Z,98868.34
2019-03-28T16:04:45.294Z,98864.61
2019-03-28T16:07:12.271Z,98864.11
2019-03-28T16:09:39.306Z,98862.80
2019-03-28T16:12:06.387Z,98865.72
2019-03-28T16:14:33.408Z,98877.51
2019-03-28T16:17:00.483Z,98871.97
2019-03-28T16:19:27.534Z,98862.50
2019-03-28T16:21:54.579Z,98860.98
2019-03-28T16:24:21.626Z,98863.60
2019-03-28T16:26:48.674Z,98864.61
2019-03-28T16:29:15.723Z,98872.47
2019-03-28T16:31:42.772Z,98870.36
2019-03-28T16:34:09.817Z,98869.55
2019-03-28T16:36:36.867Z,98868.23
2019-03-28T16:39:04.122Z,98862.70
2019-03-28T16:41:31.166Z,98870.36
2019-03-28T16:43:58.132Z,98872.67
2019-03-28T16:46:25.160Z,98878.72
2019-03-28T16:48:52.207Z,98880.03
2019-03-28T16:51:19.260Z,98874.99
2019-03-28T16:53:46.409Z,98878.42
2019-03-28T16:56:13.452Z,98879.22
2019-03-28T16:58:40.507Z,98883.15
2019-03-28T17:01:07.550Z,98881.55
2019-03-28T17:03:34.494Z,98880.23
2019-03-28T17:06:01.545Z,98881.55
2019-03-28T17:08:28.590Z,98882.85
2019-03-28T17:10:55.642Z,98888.89
2019-03-28T17:13:22.686Z,98885.98
2019-03-28T17:15:51.020Z,98889.91
2019-03-28T17:18:19.027Z,98885.17
2019-03-28T17:20:46.390Z,98886.48
2019-03-28T17:23:13.438Z,98895.14
2019-03-28T17:25:40.486Z,98900.38
2019-03-28T17:28:07.535Z,98902.50
2019-03-28T17:30:34.583Z,98899.58
2019-03-28T17:33:01.634Z,98900.89
2019-03-28T17:35:29.633Z,98909.05
2019-03-28T17:37:56.953Z,98909.55
2019-03-28T17:40:24.004Z,98913.98
2019-03-28T17:42:51.051Z,98915.80
2019-03-28T17:45:18.007Z,98923.66
2019-03-28T17:47:45.043Z,98918.42
2019-03-28T17:50:12.267Z,98921.84
2019-03-28T17:52:39.445Z,98919.73
2019-03-28T17:55:06.497Z,98924.16
2019-03-28T17:57:33.542Z,98925.27
2019-03-28T18:00:00.591Z,98927.28
2019-03-28T18:02:27.610Z,98925.47
2019-03-28T18:05:08.248Z,98928.09
2019-03-28T18:07:23.370Z,98923.36
2019-03-28T18:09:52.059Z,98926.78
2019-03-28T18:12:20.932Z,98929.91
2019-03-28T18:14:47.996Z,98929.30
2019-03-28T18:17:15.045Z,98929.09
2019-03-28T18:19:42.195Z,98927.78
2019-03-28T18:22:09.245Z,98923.25
2019-03-28T18:24:36.291Z,98930.11
2019-03-28T18:27:03.339Z,98931.41
2019-03-28T18:29:30.386Z,98933.03
2019-03-28T18:31:57.433Z,98931.22
2019-03-28T18:34:24.499Z,98930.61
2019-03-28T18:36:52.616Z,98935.34
2019-03-28T18:39:19.877Z,98931.41
2019-03-28T18:41:46.957Z,98933.73
2019-03-28T18:44:13.979Z,98935.85
2019-03-28T18:46:41.054Z,98946.63
2019-03-28T18:49:08.069Z,98939.78
2019-03-28T18:51:35.149Z,98939.78
2019-03-28T18:54:02.297Z,98943.70
2019-03-28T18:56:29.447Z,98948.95
2019-03-28T18:58:57.579Z,98970.71
2019-03-28T19:01:24.743Z,98947.64
2019-03-28T19:03:51.801Z,98950.76
2019-03-28T19:06:18.869Z,98952.88
2019-03-28T19:08:45.888Z,98954.69
2019-03-28T19:11:12.964Z,98954.36
2019-03-28T19:13:40.015Z,98963.05
2019-03-28T19:16:07.162Z,98960.91
2019-03-28T19:18:34.160Z,98962.22
2019-03-28T19:21:01.894Z,98966.98
2019-03-28T19:23:29.228Z,98968.30
2019-03-28T19:25:56.341Z,98976.15
2019-03-28T19:28:29.230Z,98990.56
2019-03-28T19:30:52.218Z,98974.84
2019-03-28T19:33:19.263Z,98977.93
2019-03-28T19:35:47.948Z,98977.13
2019-03-28T19:38:15.043Z,98973.20
2019-03-28T19:40:42.146Z,98980.45
2019-03-28T19:43:19.837Z,98977.63
2019-03-28T19:45:37.724Z,98975.01
2019-03-28T19:48:04.735Z,98975.52
2019-03-28T19:50:32.027Z,98976.52
2019-03-28T19:52:59.020Z,98967.66
2019-03-28T19:55:26.008Z,98966.77
2019-03-28T19:57:53.088Z,98964.50
2019-03-28T20:00:20.137Z,98968.64
2019-03-28T20:02:47.163Z,98968.58
2019-03-28T20:05:14.156Z,98969.14
2019-03-28T20:07:41.180Z,98968.58
2019-03-28T20:10:16.200Z,98968.78
2019-03-28T20:12:36.853Z,98973.32
2019-03-28T20:15:03.974Z,98972.31
2019-03-28T20:17:30.988Z,98977.38
2019-03-28T20:19:58.030Z,98969.83
2019-03-28T20:22:25.072Z,98976.98
2019-03-28T20:24:52.124Z,98977.79
2019-03-28T20:27:19.180Z,98976.78
2019-03-28T20:29:46.263Z,98970.23
2019-03-28T20:32:13.345Z,98974.97
2019-03-28T20:34:40.360Z,98976.59
2019-03-28T20:37:07.622Z,98976.08
2019-03-28T20:39:34.656Z,98972.16
2019-03-28T20:42:01.698Z,98970.84
2019-03-28T20:44:28.723Z,98971.65
2019-03-28T20:46:58.676Z,98976.38
2019-03-28T20:49:24.451Z,98966.91
2019-03-28T20:51:51.451Z,98972.25
2019-03-28T20:54:18.492Z,98973.56
2019-03-28T20:56:45.547Z,98986.16
2019-03-28T20:59:12.596Z,98977.50
2019-03-28T21:01:42.465Z,98983.73
2019-03-28T21:04:08.354Z,98982.73
2019-03-28T21:06:35.374Z,98978.80
2019-03-28T21:09:02.423Z,98980.11
2019-03-28T21:11:29.696Z,98979.30
2019-03-28T21:13:56.778Z,98982.73
2019-03-28T21:16:23.751Z,98981.76
2019-03-28T21:18:50.790Z,98985.69
2019-03-28T21:21:17.764Z,98980.45
2019-03-28T21:23:44.812Z,98981.76
2019-03-28T21:26:11.677Z,98973.56
2019-03-28T21:28:47.124Z,98980.75
2019-03-28T21:31:07.142Z,98976.52
2019-03-28T21:33:34.176Z,98981.55
2019-03-28T21:36:01.086Z,98978.63
2019-03-28T21:38:28.017Z,98976.82
2019-03-28T21:40:54.929Z,98970.27
2019-03-28T21:43:21.853Z,98977.33
2019-03-28T21:45:48.777Z,98968.97
2019-03-28T21:48:21.933Z,98967.66
2019-03-28T21:50:48.844Z,98971.08
2019-03-28T21:53:15.772Z,98974.20
2019-03-28T21:55:54.275Z,98968.97
2019-03-28T21:58:11.401Z,98970.77
2019-03-28T22:00:38.324Z,98970.27
2019-03-28T22:03:05.227Z,98966.34
2019-03-28T22:05:32.187Z,98967.16
2019-03-28T22:07:59.147Z,98968.46
2019-03-28T22:10:26.143Z,98955.87
2019-03-28T22:12:53.048Z,98960.09
2019-03-28T22:15:19.992Z,98956.67
2019-03-28T22:17:46.906Z,98841.52
2019-03-28T22:20:13.835Z,98960.91
2019-03-28T22:22:43.393Z,98956.98
2019-03-28T22:25:09.299Z,98954.05
2019-03-28T22:27:36.233Z,98952.74
2019-03-28T22:30:03.141Z,98948.01
2019-03-28T22:32:30.061Z,98954.36
2019-03-28T22:34:56.985Z,98949.12
2019-03-28T22:37:23.938Z,98948.31
2019-03-28T22:39:50.842Z,98940.95
2019-03-28T22:42:17.764Z,98938.64
2019-03-28T22:44:44.750Z,98936.02
2019-03-28T22:47:11.618Z,98936.02
2019-03-28T22:49:38.526Z,98932.09
2019-03-28T22:52:05.462Z,98930.78
2019-03-28T22:54:32.367Z,98926.37
2019-03-28T22:56:59.318Z,98929.80
2019-03-28T22:59:27.029Z,98930.31
2019-03-28T23:01:54.090Z,98932.92
2019-03-28T23:04:21.016Z,98930.31
2019-03-28T23:06:48.240Z,98933.73
2019-03-28T23:09:15.894Z,98927.19
2019-03-28T23:11:42.819Z,98930.78
2019-03-28T23:14:09.736Z,98930.61
2019-03-28T23:16:36.659Z,98924.56
2019-03-28T23:19:03.634Z,98927.19
2019-03-28T23:21:30.561Z,98925.87
2019-03-28T23:23:57.505Z,98930.31
2019-03-28T23:26:24.402Z,98933.91
2019-03-28T23:28:51.339Z,98926.37
2019-03-28T23:31:18.266Z,98936.02
2019-03-28T23:33:45.192Z,98938.64
2019-03-28T23:36:12.189Z,98937.66
2019-03-28T23:38:39.242Z,98935.85
2019-03-28T23:41:06.157Z,98931.11
2019-03-28T23:43:33.096Z,98935.05
2019-03-28T23:46:00.049Z,98932.42
2019-03-28T23:48:27.015Z,98929.80
2019-03-28T23:50:54.125Z,98929.30
2019-03-28T23:53:21.081Z,98928.49
2019-03-28T23:55:47.995Z,98931.11
2019-03-28T23:58:14.947Z,98933.73
